Littleton, NH (03561)

10:16 AM EDT on September 05, 2015 (GMT -0400)
Slate Ledge Rd. | | Change Station
CLOSE
Current Station
Personal Weather Station
Location: Littleton, NH
Elevation: 1362 ft
Nearby Weather Stations

Elev 1362 ft 44.30 °N, 71.84 °W | Updated 13 seconds ago

Clear
Clear
64.2 °F
Feels Like 64.2 °F
N
0.0
Wind Variable Wind from South
Gusts 0.0 mph

Today
High -- | Low -- °F
--% Chance of Precip.
Yesterday
High -- | Low -- °F
Precip. -- in
6:14 AM 7:16 PM
Waning Gibbous, 48% visible
Pressure 30.32 in
Visibility 10.0 miles
Clouds Clear
Dew Point 61 °F
Humidity 88%
Rainfall 0.00 in
Snow Depth Not available.
UV 1.0 out of 12
Pollen 7.70 out of 12
Air Quality Not available.
Flu Activity Not available.
METAR KHIE 051352Z AUTO 00000KT 10SM CLR 19/14 A3031 RMK AO2 SLP267 T01890139 TSNO
Pressure 30.32 in
Visibility 10.0 miles
Clouds Clear
Dew Point 61 °F
Humidity 88%
Rainfall 0.00 in
Snow Depth Not available.
UV 1.0 out of 12
Pollen 7.70 out of 12
Air Quality Not available.
Flu Activity Not available.
METAR KHIE 051352Z AUTO 00000KT 10SM CLR 19/14 A3031 RMK AO2 SLP267 T01890139 TSNO

10-Day Weather Forecast

×

Almanac

Astronomy

Sep. 05, 2015 Rise Set
Actual Time
Civil Twilight
Nautical Twilight
Astronomical Twilight
Moon
Length of Visible Light
Length of Day
Tomorrow will be .
, % of the Moon is Illuminated

Today's Extremes

State Highs State Lows

Community

WunderPhotos

Upload Photos

1,852,472 photos uploaded!

WunderBlogs® & News

Nearby

Air Quality

  Air Quality AQ Index Pollutant
Not available.

Snow Depth

Station Depth Elevation

Earthquake Activity

City Distance Mag. Time & Date
Minimum magnitude displayed is 2.5.

Coastal Water Temperatures

Place Temperature

Stations

Nearby Weather Stations

Station Location Temp. Windchill Dew Point Humidity Wind Precip. Elev Updated Type